Time;durP1;ratioP1;P1;durP2;ratioP2;P2;SDS_P1;SDS_P2;PMS_P1;PMS_P2;Temp;Humidity;BMP_temperature;BMP_pressure;BME280_temperature;BME280_humidity;BME280_pressure;Samples;Min_cycle;Max_cycle;Signal;HPM_P1;HPM_P2
2023/05/30 00:01:36;;;;;;;10.38;3.22;;;;;;;;;;5016443;28;20045;-79
2023/05/30 00:04:02;;;;;;;7.00;2.50;;;;;;;;;;5000668;28;20057;-79
2023/05/30 00:06:29;;;;;;;12.32;2.70;;;;;;;;;;5016730;28;20046;-78
2023/05/30 00:08:57;;;;;;;8.75;2.75;;;;;;;;;;5014501;28;20049;-80
2023/05/30 00:11:23;;;;;;;8.55;2.70;;;;;;;;;;5014698;28;20133;-80
2023/05/30 00:13:50;;;;;;;9.50;2.95;;;;;;;;;;5014463;28;20050;-80
2023/05/30 00:16:19;;;;;;;7.63;2.70;;;;;;;;;;5013178;28;20100;-79
2023/05/30 00:18:46;;;;;;;9.90;2.80;;;;;;;;;;5012982;28;20065;-80
2023/05/30 00:21:14;;;;;;;14.48;2.75;;;;;;;;;;5013626;28;20048;-80
2023/05/30 00:23:40;;;;;;;11.10;3.20;;;;;;;;;;5012864;28;20056;-80
2023/05/30 00:26:10;;;;;;;10.73;3.17;;;;;;;;;;4997325;28;20437;-79
2023/05/30 00:28:38;;;;;;;7.72;2.92;;;;;;;;;;4997395;28;20119;-78
2023/05/30 00:31:05;;;;;;;7.28;2.83;;;;;;;;;;4997216;28;20076;-81
2023/05/30 00:33:32;;;;;;;6.82;2.90;;;;;;;;;;5013488;28;20510;-80
2023/05/30 00:35:58;;;;;;;8.23;2.83;;;;;;;;;;5014677;28;20050;-79
2023/05/30 00:38:27;;;;;;;8.57;2.78;;;;;;;;;;5013073;28;20053;-78
2023/05/30 00:40:53;;;;;;;6.30;2.38;;;;;;;;;;5013790;28;20049;-77
2023/05/30 00:43:21;;;;;;;10.23;3.00;;;;;;;;;;5014857;28;20049;-79
2023/05/30 00:45:50;;;;;;;7.25;2.80;;;;;;;;;;5022964;28;20042;-79
2023/05/30 00:48:17;;;;;;;8.23;2.83;;;;;;;;;;4997725;28;20096;-78
2023/05/30 00:50:45;;;;;;;7.18;2.30;;;;;;;;;;4995828;28;20076;-78
2023/05/30 00:53:12;;;;;;;6.03;2.28;;;;;;;;;;5013418;28;20054;-79
2023/05/30 00:55:39;;;;;;;9.40;2.42;;;;;;;;;;4997003;28;20044;-78
2023/05/30 00:58:06;;;;;;;13.13;2.88;;;;;;;;;;5012041;28;20664;-79
2023/05/30 01:00:37;;;;;;;8.65;2.50;;;;;;;;;;5013120;28;20514;-79
2023/05/30 01:03:04;;;;;;;11.27;2.40;;;;;;;;;;5013209;28;20085;-79
2023/05/30 01:05:31;;;;;;;9.02;2.42;;;;;;;;;;5015646;28;20141;-79
2023/05/30 01:07:57;;;;;;;8.57;2.70;;;;;;;;;;4995337;28;20053;-81
2023/05/30 01:10:24;;;;;;;7.72;2.40;;;;;;;;;;5012959;28;20035;-80
2023/05/30 01:12:59;;;;;;;6.63;2.10;;;;;;;;;;5011550;28;20550;-79
2023/05/30 01:15:30;;;;;;;8.23;2.22;;;;;;;;;;5011425;28;20491;-80
2023/05/30 01:18:04;;;;;;;14.88;2.80;;;;;;;;;;5031558;28;20064;-79
2023/05/30 01:20:33;;;;;;;9.00;2.55;;;;;;;;;;5032810;28;20046;-80
2023/05/30 01:23:18;;;;;;;10.73;2.83;;;;;;;;;;5028034;28;20069;-78
2023/05/30 01:25:52;;;;;;;12.40;2.83;;;;;;;;;;5028681;28;20033;-79
2023/05/30 01:28:21;;;;;;;10.05;2.65;;;;;;;;;;5029083;28;20079;-78
2023/05/30 01:30:49;;;;;;;11.98;3.22;;;;;;;;;;5024487;28;20505;-78
2023/05/30 01:33:17;;;;;;;11.52;2.90;;;;;;;;;;5014205;28;20049;-78
2023/05/30 01:35:44;;;;;;;7.50;2.60;;;;;;;;;;5030850;28;20037;-78
2023/05/30 01:38:11;;;;;;;12.23;2.53;;;;;;;;;;5030986;28;20068;-79
2023/05/30 01:40:39;;;;;;;8.90;2.60;;;;;;;;;;5031057;28;20485;-80
2023/05/30 01:43:21;;;;;;;10.07;2.97;;;;;;;;;;5029879;28;20049;-79
2023/05/30 01:45:47;;;;;;;9.65;2.42;;;;;;;;;;5043769;28;20057;-78
2023/05/30 01:48:18;;;;;;;7.03;2.45;;;;;;;;;;5037675;28;20045;-79
2023/05/30 01:50:47;;;;;;;8.15;2.63;;;;;;;;;;5036138;28;20402;-80
2023/05/30 01:53:21;;;;;;;12.07;2.63;;;;;;;;;;5031705;28;20120;-79
2023/05/30 01:55:50;;;;;;;6.03;2.50;;;;;;;;;;5032033;28;20033;-79
2023/05/30 01:58:19;;;;;;;9.50;2.65;;;;;;;;;;5015449;28;20068;-78
2023/05/30 02:00:46;;;;;;;9.48;2.85;;;;;;;;;;5032312;28;20092;-79
2023/05/30 02:03:15;;;;;;;8.32;2.78;;;;;;;;;;5031710;28;20049;-77
2023/05/30 02:05:43;;;;;;;10.25;2.92;;;;;;;;;;5031607;28;20048;-78
2023/05/30 02:08:10;;;;;;;7.28;2.85;;;;;;;;;;5024185;28;20053;-80
2023/05/30 02:10:36;;;;;;;7.43;2.53;;;;;;;;;;5031813;28;20037;-77
2023/05/30 02:13:03;;;;;;;8.43;2.67;;;;;;;;;;5031915;28;20057;-79
2023/05/30 02:15:30;;;;;;;6.82;2.70;;;;;;;;;;5032901;28;20047;-80
2023/05/30 02:17:59;;;;;;;10.93;3.22;;;;;;;;;;5031264;28;20048;-79
2023/05/30 02:20:26;;;;;;;13.07;3.17;;;;;;;;;;5032590;28;20041;-78
2023/05/30 02:22:52;;;;;;;8.27;2.92;;;;;;;;;;5030876;28;20080;-78
2023/05/30 02:25:20;;;;;;;7.03;2.70;;;;;;;;;;5014136;28;20121;-77
2023/05/30 02:27:49;;;;;;;7.70;2.70;;;;;;;;;;5030882;28;20045;-80
2023/05/30 02:30:16;;;;;;;6.80;2.13;;;;;;;;;;5030645;28;20509;-78
2023/05/30 02:32:43;;;;;;;4.97;2.47;;;;;;;;;;5030840;28;20119;-81
2023/05/30 02:35:10;;;;;;;11.48;2.67;;;;;;;;;;5030718;28;20042;-80
2023/05/30 02:37:39;;;;;;;8.48;2.60;;;;;;;;;;5037611;28;20048;-80
2023/05/30 02:40:09;;;;;;;9.13;2.95;;;;;;;;;;5041392;28;20129;-77
2023/05/30 02:42:36;;;;;;;7.15;2.92;;;;;;;;;;5034879;28;20045;-77
2023/05/30 02:45:03;;;;;;;10.25;2.92;;;;;;;;;;5030241;28;20060;-79
2023/05/30 02:47:30;;;;;;;6.88;2.90;;;;;;;;;;5031337;28;20528;-79
2023/05/30 02:49:57;;;;;;;8.10;3.00;;;;;;;;;;5033074;28;21069;-79
2023/05/30 02:52:23;;;;;;;16.45;3.10;;;;;;;;;;5031720;28;20092;-79
2023/05/30 02:54:55;;;;;;;9.05;2.70;;;;;;;;;;5031000;28;20072;-79
2023/05/30 02:57:28;;;;;;;10.15;2.90;;;;;;;;;;5031885;28;20117;-80
2023/05/30 03:00:13;;;;;;;6.60;2.58;;;;;;;;;;5031098;28;20053;-80
2023/05/30 03:02:46;;;;;;;7.00;2.60;;;;;;;;;;5030597;28;20049;-79
2023/05/30 03:05:13;;;;;;;6.50;2.78;;;;;;;;;;5030455;28;20042;-80
2023/05/30 03:07:39;;;;;;;7.25;2.80;;;;;;;;;;5014915;28;20057;-79
2023/05/30 03:10:08;;;;;;;8.23;2.95;;;;;;;;;;5011162;28;20263;-79
2023/05/30 03:12:39;;;;;;;9.85;3.15;;;;;;;;;;5011074;28;20141;-80
2023/05/30 03:15:06;;;;;;;9.20;2.65;;;;;;;;;;5010540;28;20037;-79
2023/05/30 03:17:34;;;;;;;11.70;2.50;;;;;;;;;;5030547;28;20418;-78
2023/05/30 03:20:02;;;;;;;8.65;2.78;;;;;;;;;;5032087;28;20039;-77
2023/05/30 03:22:29;;;;;;;6.78;2.90;;;;;;;;;;5005486;28;20049;-77
2023/05/30 03:24:56;;;;;;;4.57;2.40;;;;;;;;;;5007312;28;20046;-75
2023/05/30 03:27:23;;;;;;;8.68;3.13;;;;;;;;;;4993817;28;20069;-79
2023/05/30 03:29:50;;;;;;;8.32;2.85;;;;;;;;;;4978162;28;20105;-77
2023/05/30 03:32:16;;;;;;;11.30;2.88;;;;;;;;;;4995766;28;20054;-80
2023/05/30 03:34:45;;;;;;;6.10;2.72;;;;;;;;;;4977903;28;20452;-79
2023/05/30 03:37:14;;;;;;;12.10;3.40;;;;;;;;;;4978042;28;20149;-78
2023/05/30 03:39:41;;;;;;;11.65;2.95;;;;;;;;;;4979094;28;20070;-79
2023/05/30 03:42:07;;;;;;;11.20;3.08;;;;;;;;;;4983672;28;20042;-78
2023/05/30 03:44:34;;;;;;;8.88;2.95;;;;;;;;;;4981013;28;20038;-80
2023/05/30 03:47:01;;;;;;;7.75;2.80;;;;;;;;;;4996803;28;20046;-78
2023/05/30 03:49:28;;;;;;;6.90;2.72;;;;;;;;;;4979990;28;20046;-80
2023/05/30 03:51:54;;;;;;;6.57;3.00;;;;;;;;;;4993916;28;20054;-79
2023/05/30 03:54:21;;;;;;;7.15;2.97;;;;;;;;;;4979841;28;20105;-79
2023/05/30 03:56:47;;;;;;;5.65;2.60;;;;;;;;;;4979276;28;20204;-78
2023/05/30 03:59:15;;;;;;;7.85;3.03;;;;;;;;;;4997422;28;20038;-80
2023/05/30 04:01:42;;;;;;;11.05;2.63;;;;;;;;;;4980107;28;20042;-77
2023/05/30 04:04:10;;;;;;;10.38;2.75;;;;;;;;;;4993372;28;20527;-78
2023/05/30 04:06:37;;;;;;;8.77;3.30;;;;;;;;;;4997510;28;20046;-77
2023/05/30 04:09:05;;;;;;;8.27;2.85;;;;;;;;;;5027826;28;20495;-77
2023/05/30 04:11:32;;;;;;;11.70;3.10;;;;;;;;;;5028370;28;20053;-78
2023/05/30 04:13:59;;;;;;;11.18;2.67;;;;;;;;;;5025094;28;20690;-79
2023/05/30 04:16:26;;;;;;;11.02;3.03;;;;;;;;;;5014720;28;20046;-79
2023/05/30 04:18:53;;;;;;;6.38;2.80;;;;;;;;;;5013087;28;20158;-79
2023/05/30 04:21:20;;;;;;;6.32;2.50;;;;;;;;;;5012041;28;20038;-78
2023/05/30 04:23:48;;;;;;;6.57;2.58;;;;;;;;;;5012480;28;20050;-78
2023/05/30 04:26:15;;;;;;;12.27;2.90;;;;;;;;;;5011369;28;20112;-77
2023/05/30 04:28:42;;;;;;;11.90;2.90;;;;;;;;;;5011590;28;20061;-79
2023/05/30 04:31:08;;;;;;;11.85;3.00;;;;;;;;;;5011123;28;20064;-77
2023/05/30 04:33:48;;;;;;;13.63;2.85;;;;;;;;;;5016847;28;20046;-77
2023/05/30 04:36:18;;;;;;;8.95;2.75;;;;;;;;;;5031642;28;20041;-80
2023/05/30 04:38:48;;;;;;;8.70;2.70;;;;;;;;;;5001167;28;20053;-81
2023/05/30 04:41:24;;;;;;;9.23;2.70;;;;;;;;;;4998087;28;20061;-80
2023/05/30 04:43:57;;;;;;;11.07;2.75;;;;;;;;;;5001486;28;20046;-80
2023/05/30 04:46:27;;;;;;;13.13;2.70;;;;;;;;;;4989967;28;20059;-80
2023/05/30 04:49:00;;;;;;;10.25;3.17;;;;;;;;;;5014596;28;20066;-80
2023/05/30 04:51:28;;;;;;;11.48;2.55;;;;;;;;;;4993542;28;20049;-80
2023/05/30 04:53:55;;;;;;;11.20;2.78;;;;;;;;;;4994423;28;20046;-80
2023/05/30 04:56:26;;;;;;;15.82;3.28;;;;;;;;;;4993556;28;20046;-80
2023/05/30 04:58:53;;;;;;;9.98;2.88;;;;;;;;;;5009025;28;20439;-79
2023/05/30 05:01:21;;;;;;;15.35;3.38;;;;;;;;;;5009173;28;20412;-80
2023/05/30 05:03:48;;;;;;;10.68;3.08;;;;;;;;;;5011647;28;20042;-81
2023/05/30 05:06:17;;;;;;;13.75;3.03;;;;;;;;;;5024946;28;20037;-78
2023/05/30 05:08:44;;;;;;;14.70;3.10;;;;;;;;;;5013157;28;20099;-79
2023/05/30 05:11:10;;;;;;;14.15;2.78;;;;;;;;;;5004235;28;20242;-79
2023/05/30 05:13:37;;;;;;;9.95;2.83;;;;;;;;;;5007309;28;20111;-77
2023/05/30 05:16:06;;;;;;;11.27;2.47;;;;;;;;;;5023172;28;20049;-78
2023/05/30 05:18:33;;;;;;;15.15;2.92;;;;;;;;;;5008583;28;20077;-81
2023/05/30 05:21:00;;;;;;;9.27;2.63;;;;;;;;;;5008920;28;20053;-80
2023/05/30 05:23:28;;;;;;;13.52;2.95;;;;;;;;;;5015646;28;20033;-78
2023/05/30 05:25:56;;;;;;;17.15;3.33;;;;;;;;;;5016417;28;20057;-79
2023/05/30 05:28:28;;;;;;;11.77;2.70;;;;;;;;;;4997683;28;20046;-80
2023/05/30 05:30:54;;;;;;;14.40;2.63;;;;;;;;;;5013128;28;20052;-81
2023/05/30 05:33:21;;;;;;;10.32;2.70;;;;;;;;;;5013883;28;20060;-81
2023/05/30 05:35:49;;;;;;;12.27;2.97;;;;;;;;;;5011593;28;20049;-80
2023/05/30 05:38:16;;;;;;;15.43;3.05;;;;;;;;;;5010845;28;20049;-80
2023/05/30 05:40:43;;;;;;;9.68;3.17;;;;;;;;;;5006369;28;20138;-79
2023/05/30 05:43:12;;;;;;;14.05;2.80;;;;;;;;;;5009342;28;20636;-80
2023/05/30 05:45:39;;;;;;;11.80;2.72;;;;;;;;;;5011016;28;20457;-80
2023/05/30 05:48:06;;;;;;;11.13;2.70;;;;;;;;;;5010969;28;20046;-79
2023/05/30 05:50:32;;;;;;;12.45;2.78;;;;;;;;;;5011360;28;20502;-79
2023/05/30 05:53:00;;;;;;;13.02;3.35;;;;;;;;;;5010699;28;20398;-80
2023/05/30 05:55:26;;;;;;;12.35;3.00;;;;;;;;;;5010963;28;20109;-80
2023/05/30 05:57:53;;;;;;;13.35;2.97;;;;;;;;;;5008306;28;20049;-79
2023/05/30 06:00:23;;;;;;;11.73;2.88;;;;;;;;;;5013469;28;20052;-77
2023/05/30 06:02:50;;;;;;;11.25;2.55;;;;;;;;;;4992947;28;20129;-79
2023/05/30 06:05:17;;;;;;;12.88;2.78;;;;;;;;;;4989739;28;20053;-78
2023/05/30 06:07:44;;;;;;;17.95;3.20;;;;;;;;;;5006752;28;20048;-80
2023/05/30 06:10:14;;;;;;;8.40;2.80;;;;;;;;;;5013928;28;20053;-78
2023/05/30 06:12:40;;;;;;;13.95;2.78;;;;;;;;;;5016923;28;20046;-80
2023/05/30 06:15:07;;;;;;;7.88;2.33;;;;;;;;;;5012592;28;20052;-79
2023/05/30 06:17:34;;;;;;;9.40;2.53;;;;;;;;;;5013421;28;20564;-79
2023/05/30 06:20:02;;;;;;;10.65;2.60;;;;;;;;;;5010735;28;20053;-80
2023/05/30 06:22:28;;;;;;;18.92;3.15;;;;;;;;;;4998394;28;20069;-77
2023/05/30 06:24:55;;;;;;;8.50;2.55;;;;;;;;;;4993068;28;20050;-78
2023/05/30 06:27:24;;;;;;;13.38;2.83;;;;;;;;;;4992181;28;20066;-79
2023/05/30 06:29:54;;;;;;;9.10;2.67;;;;;;;;;;4992144;28;20050;-77
2023/05/30 06:32:20;;;;;;;11.93;3.20;;;;;;;;;;4992724;28;20062;-78
2023/05/30 06:34:47;;;;;;;9.18;2.90;;;;;;;;;;5009497;28;20126;-79
2023/05/30 06:37:14;;;;;;;15.30;3.50;;;;;;;;;;5009294;28;20129;-80
2023/05/30 06:39:41;;;;;;;11.52;2.80;;;;;;;;;;5010150;28;20066;-77
2023/05/30 06:42:08;;;;;;;13.02;3.20;;;;;;;;;;5005348;28;20641;-80
2023/05/30 06:44:42;;;;;;;14.75;2.90;;;;;;;;;;5006411;28;20042;-80
2023/05/30 06:47:08;;;;;;;12.13;3.15;;;;;;;;;;5006788;28;20046;-77
2023/05/30 06:49:35;;;;;;;16.02;3.30;;;;;;;;;;4991736;28;20041;-77
2023/05/30 06:52:02;;;;;;;12.68;3.00;;;;;;;;;;4990794;28;20121;-79
2023/05/30 06:54:29;;;;;;;15.63;3.05;;;;;;;;;;5007666;28;20068;-79
2023/05/30 06:57:00;;;;;;;8.30;2.78;;;;;;;;;;5010320;28;20030;-77
2023/05/30 06:59:26;;;;;;;14.82;3.47;;;;;;;;;;4994678;28;20312;-78
2023/05/30 07:01:53;;;;;;;12.40;2.60;;;;;;;;;;4994316;28;20121;-79
2023/05/30 07:04:20;;;;;;;10.75;2.90;;;;;;;;;;5010854;28;20140;-82
2023/05/30 07:06:46;;;;;;;10.48;2.58;;;;;;;;;;5006094;28;20038;-80
2023/05/30 07:09:14;;;;;;;8.05;2.17;;;;;;;;;;5009336;28;20303;-80
2023/05/30 07:11:40;;;;;;;8.85;2.00;;;;;;;;;;5009429;28;20038;-80
2023/05/30 07:14:07;;;;;;;11.38;1.85;;;;;;;;;;5007267;28;20065;-81
2023/05/30 07:16:33;;;;;;;31.23;16.52;;;;;;;;;;5011168;28;20048;-78
2023/05/30 07:19:01;;;;;;;6.20;1.80;;;;;;;;;;4995065;28;20073;-78
2023/05/30 07:21:41;;;;;;;7.43;2.08;;;;;;;;;;4994531;28;20072;-79
2023/05/30 07:24:07;;;;;;;8.43;1.75;;;;;;;;;;5007758;28;20263;-79
2023/05/30 07:26:34;;;;;;;6.20;1.80;;;;;;;;;;4990216;28;20435;-79
2023/05/30 07:29:01;;;;;;;7.53;1.90;;;;;;;;;;4990137;28;20100;-77
2023/05/30 07:31:28;;;;;;;5.10;1.45;;;;;;;;;;5009235;28;20054;-84
2023/05/30 07:33:55;;;;;;;5.20;1.67;;;;;;;;;;5007853;28;20086;-79
2023/05/30 07:36:21;;;;;;;11.57;1.60;;;;;;;;;;4992807;28;20042;-80
2023/05/30 07:38:48;;;;;;;5.72;1.52;;;;;;;;;;5009193;28;20501;-78
2023/05/30 07:41:15;;;;;;;6.95;1.35;;;;;;;;;;5000853;28;20132;-80
2023/05/30 07:43:42;;;;;;;8.95;1.77;;;;;;;;;;4999215;28;20114;-80
2023/05/30 07:46:08;;;;;;;10.15;1.65;;;;;;;;;;5008599;28;20061;-81
2023/05/30 07:48:35;;;;;;;13.88;2.08;;;;;;;;;;5010491;28;20398;-83
2023/05/30 07:51:01;;;;;;;6.07;1.70;;;;;;;;;;4994052;28;20042;-80
2023/05/30 07:53:28;;;;;;;8.70;1.85;;;;;;;;;;5010975;28;20451;-80
2023/05/30 07:55:55;;;;;;;11.85;2.00;;;;;;;;;;5012059;28;20046;-79
2023/05/30 07:58:22;;;;;;;6.43;1.70;;;;;;;;;;5016915;28;20042;-80
2023/05/30 08:00:49;;;;;;;11.68;1.77;;;;;;;;;;5008493;28;20042;-77
2023/05/30 08:03:15;;;;;;;8.23;2.00;;;;;;;;;;5008463;28;20050;-79
2023/05/30 08:05:42;;;;;;;5.95;1.63;;;;;;;;;;5007003;28;20054;-80
2023/05/30 08:08:09;;;;;;;6.25;1.60;;;;;;;;;;5010378;28;20062;-77
2023/05/30 08:10:38;;;;;;;6.43;1.20;;;;;;;;;;5013004;28;20128;-79
2023/05/30 08:13:05;;;;;;;6.95;1.50;;;;;;;;;;4999089;28;20049;-80
2023/05/30 08:15:32;;;;;;;6.28;1.30;;;;;;;;;;5008729;28;20046;-83
2023/05/30 08:18:00;;;;;;;7.07;1.42;;;;;;;;;;4992187;28;20042;-79
2023/05/30 08:20:27;;;;;;;6.55;1.48;;;;;;;;;;5014750;28;20046;-79
2023/05/30 08:22:53;;;;;;;3.30;1.30;;;;;;;;;;5013692;28;20069;-79
2023/05/30 08:25:23;;;;;;;6.70;1.45;;;;;;;;;;5015803;28;20463;-83
2023/05/30 08:27:53;;;;;;;6.03;1.50;;;;;;;;;;5012727;28;20065;-78
2023/05/30 08:30:19;;;;;;;5.63;1.48;;;;;;;;;;5012621;28;20045;-75
2023/05/30 08:32:50;;;;;;;11.23;1.88;;;;;;;;;;5008979;28;20104;-79
2023/05/30 08:35:16;;;;;;;11.23;1.70;;;;;;;;;;4998684;28;20053;-76
2023/05/30 08:37:43;;;;;;;16.65;1.95;;;;;;;;;;5014665;28;20046;-77
2023/05/30 08:40:13;;;;;;;19.00;1.50;;;;;;;;;;5004638;28;20046;-77
2023/05/30 08:42:41;;;;;;;15.63;1.67;;;;;;;;;;5008168;28;20037;-76
2023/05/30 08:45:08;;;;;;;10.57;1.15;;;;;;;;;;4994418;28;20054;-80
2023/05/30 08:47:35;;;;;;;15.02;1.67;;;;;;;;;;5009331;28;20049;-78
2023/05/30 08:50:03;;;;;;;17.38;1.60;;;;;;;;;;5008890;28;20058;-78
2023/05/30 08:52:31;;;;;;;17.02;1.80;;;;;;;;;;5016433;28;20034;-79
2023/05/30 08:55:19;;;;;;;6.65;1.60;;;;;;;;;;5014517;28;20073;-83
2023/05/30 08:57:50;;;;;;;4.05;1.38;;;;;;;;;;5011799;28;20065;-77
2023/05/30 09:00:17;;;;;;;4.05;1.08;;;;;;;;;;5010341;28;20049;-78
2023/05/30 09:02:44;;;;;;;5.45;1.10;;;;;;;;;;5012390;28;20054;-81
2023/05/30 09:05:15;;;;;;;8.18;1.30;;;;;;;;;;5012814;28;20133;-79
2023/05/30 09:07:42;;;;;;;5.03;1.15;;;;;;;;;;5015599;28;20097;-81
2023/05/30 09:10:11;;;;;;;5.90;1.40;;;;;;;;;;5015365;28;20041;-80
2023/05/30 09:12:38;;;;;;;4.97;1.40;;;;;;;;;;5014947;28;20065;-80
2023/05/30 09:15:05;;;;;;;6.13;1.17;;;;;;;;;;5013177;28;20057;-79
2023/05/30 09:17:32;;;;;;;5.72;1.25;;;;;;;;;;5016619;28;20045;-80
2023/05/30 09:20:00;;;;;;;5.47;1.27;;;;;;;;;;5015857;28;20042;-80
2023/05/30 09:22:27;;;;;;;5.90;1.40;;;;;;;;;;5016541;28;20045;-81
2023/05/30 09:24:54;;;;;;;5.85;1.50;;;;;;;;;;5016184;28;20042;-81
2023/05/30 09:27:21;;;;;;;3.55;1.30;;;;;;;;;;5017742;28;20506;-81
2023/05/30 09:29:47;;;;;;;6.03;1.20;;;;;;;;;;4999767;28;20057;-79
2023/05/30 09:32:14;;;;;;;4.50;1.17;;;;;;;;;;5015617;28;20046;-80
2023/05/30 09:34:51;;;;;;;3.90;1.40;;;;;;;;;;5014438;28;20042;-80
2023/05/30 09:37:18;;;;;;;3.70;1.58;;;;;;;;;;5017328;28;20057;-81
2023/05/30 09:40:02;;;;;;;6.10;1.25;;;;;;;;;;5015584;28;20049;-80
2023/05/30 09:42:38;;;;;;;4.10;1.25;;;;;;;;;;5015556;28;20073;-78
2023/05/30 09:45:05;;;;;;;;;;;;;;;;;;4999733;28;20073;-79
2023/05/30 09:47:37;;;;;;;6.43;1.80;;;;;;;;;;5011818;28;19928;-79
2023/05/30 09:50:05;;;;;;;8.85;1.50;;;;;;;;;;5012225;28;20118;-79
2023/05/30 09:52:32;;;;;;;5.82;1.25;;;;;;;;;;5012975;28;20050;-78
2023/05/30 09:54:59;;;;;;;5.63;1.60;;;;;;;;;;5017209;28;20054;-77
2023/05/30 09:57:27;;;;;;;4.97;1.35;;;;;;;;;;5014799;28;20050;-79
2023/05/30 09:59:55;;;;;;;6.18;1.35;;;;;;;;;;5000886;28;20267;-79
2023/05/30 10:02:22;;;;;;;3.60;1.35;;;;;;;;;;5021107;28;20037;-78
2023/05/30 10:04:52;;;;;;;5.03;1.30;;;;;;;;;;5019476;28;20046;-79
2023/05/30 10:07:19;;;;;;;3.65;1.30;;;;;;;;;;5023367;28;20281;-77
2023/05/30 10:09:52;;;;;;;4.38;1.60;;;;;;;;;;5020757;28;20105;-78
2023/05/30 10:12:21;;;;;;;;;;;;;;;;;;5022304;28;20061;-78
2023/05/30 10:14:48;;;;;;;7.75;1.40;;;;;;;;;;5023793;28;19948;-78
2023/05/30 10:17:16;;;;;;;4.60;1.30;;;;;;;;;;5004892;28;20034;-77
2023/05/30 10:20:06;;;;;;;4.72;1.40;;;;;;;;;;5002925;28;20050;-78
2023/05/30 10:22:40;;;;;;;4.78;1.40;;;;;;;;;;5020281;28;20037;-77
2023/05/30 10:25:08;;;;;;;3.83;1.52;;;;;;;;;;5020210;28;20120;-76
2023/05/30 10:27:38;;;;;;;10.20;1.83;;;;;;;;;;5016036;28;20065;-81
2023/05/30 10:30:06;;;;;;;7.57;1.80;;;;;;;;;;4999783;28;20053;-77
2023/05/30 10:32:36;;;;;;;10.23;1.60;;;;;;;;;;5021383;28;20049;-78
2023/05/30 10:35:13;;;;;;;6.32;1.70;;;;;;;;;;5015413;28;20056;-79
2023/05/30 10:37:40;;;;;;;7.97;1.45;;;;;;;;;;5022043;28;20049;-78
2023/05/30 10:40:09;;;;;;;5.43;1.92;;;;;;;;;;5016939;28;20072;-80
2023/05/30 10:42:36;;;;;;;9.55;1.88;;;;;;;;;;5012143;28;20042;-78
2023/05/30 10:45:09;;;;;;;4.07;1.70;;;;;;;;;;5011765;28;20614;-77
2023/05/30 10:47:55;;;;;;;5.28;1.50;;;;;;;;;;5011708;28;20049;-78
2023/05/30 10:50:29;;;;;;;3.60;1.63;;;;;;;;;;5011666;28;21245;-78
2023/05/30 10:52:57;;;;;;;5.38;1.58;;;;;;;;;;5011263;28;20058;-78
2023/05/30 10:55:26;;;;;;;5.07;1.40;;;;;;;;;;5010486;28;20044;-78
2023/05/30 10:57:53;;;;;;;3.53;1.35;;;;;;;;;;5010538;28;20061;-80
2023/05/30 11:00:30;;;;;;;3.45;1.50;;;;;;;;;;4989917;28;20144;-69
2023/05/30 11:02:57;;;;;;;4.47;1.55;;;;;;;;;;5004649;28;20050;-70
2023/05/30 11:05:30;;;;;;;6.43;1.55;;;;;;;;;;5005465;28;20092;-69
2023/05/30 11:07:58;;;;;;;7.95;1.85;;;;;;;;;;5004351;28;20050;-71
2023/05/30 11:10:26;;;;;;;3.13;1.30;;;;;;;;;;5003746;28;20132;-70
2023/05/30 11:12:53;;;;;;;6.45;1.40;;;;;;;;;;4996248;28;20065;-71
2023/05/30 11:15:35;;;;;;;6.68;1.60;;;;;;;;;;5005069;28;20057;-71
2023/05/30 11:18:13;;;;;;;5.43;1.70;;;;;;;;;;5004728;28;20089;-72
2023/05/30 11:21:00;;;;;;;5.95;1.80;;;;;;;;;;4988799;28;20129;-71
2023/05/30 11:23:29;;;;;;;4.50;1.45;;;;;;;;;;5006566;28;20049;-71
2023/05/30 11:25:57;;;;;;;8.10;1.70;;;;;;;;;;5005723;28;20046;-72
2023/05/30 11:28:33;;;;;;;5.38;1.75;;;;;;;;;;5002748;28;20045;-71
2023/05/30 11:31:13;;;;;;;10.35;1.70;;;;;;;;;;5000105;28;20687;-71
2023/05/30 11:33:40;;;;;;;7.28;3.22;;;;;;;;;;5002360;28;20057;-72
2023/05/30 11:36:08;;;;;;;3.42;1.40;;;;;;;;;;4988024;28;20038;-71
2023/05/30 11:38:35;;;;;;;3.28;1.45;;;;;;;;;;5005184;28;20518;-70
2023/05/30 11:41:01;;;;;;;5.07;1.52;;;;;;;;;;5004846;28;20057;-71
2023/05/30 11:43:28;;;;;;;3.40;1.40;;;;;;;;;;5007656;28;20482;-71
2023/05/30 11:45:56;;;;;;;3.38;1.40;;;;;;;;;;5008925;28;20690;-71
2023/05/30 11:48:23;;;;;;;4.15;1.55;;;;;;;;;;5008164;28;20123;-72
2023/05/30 11:50:53;;;;;;;5.22;1.70;;;;;;;;;;4991354;28;20065;-72
2023/05/30 11:53:20;;;;;;;8.50;1.80;;;;;;;;;;4991273;28;20083;-71
2023/05/30 11:55:49;;;;;;;3.20;1.63;;;;;;;;;;5006708;28;20048;-70
2023/05/30 11:58:17;;;;;;;7.07;1.55;;;;;;;;;;5004028;28;20038;-72
2023/05/30 12:00:44;;;;;;;5.55;1.50;;;;;;;;;;5005474;28;20458;-73
2023/05/30 12:03:16;;;;;;;9.43;1.70;;;;;;;;;;5001823;28;20041;-71
2023/05/30 12:05:47;;;;;;;7.13;1.58;;;;;;;;;;4990435;28;20045;-73
2023/05/30 12:08:16;;;;;;;6.82;1.65;;;;;;;;;;5005775;28;20048;-74
2023/05/30 12:10:44;;;;;;;5.80;1.67;;;;;;;;;;5006081;28;20383;-73
2023/05/30 12:13:10;;;;;;;6.25;1.58;;;;;;;;;;5008756;28;20112;-71
2023/05/30 12:15:37;;;;;;;7.97;1.70;;;;;;;;;;5007325;28;20046;-71
2023/05/30 12:18:04;;;;;;;4.55;1.80;;;;;;;;;;5008645;28;20046;-82
2023/05/30 12:20:31;;;;;;;5.18;1.90;;;;;;;;;;5011271;28;20649;-80
2023/05/30 12:23:03;;;;;;;7.78;1.67;;;;;;;;;;5018823;28;20502;-82
2023/05/30 12:25:30;;;;;;;4.70;1.45;;;;;;;;;;5010468;28;20046;-80
2023/05/30 12:27:57;;;;;;;6.05;1.55;;;;;;;;;;5010049;28;20050;-83
2023/05/30 12:30:24;;;;;;;4.82;1.70;;;;;;;;;;5008436;28;20145;-82
2023/05/30 12:32:51;;;;;;;3.88;1.52;;;;;;;;;;5008623;28;20045;-82
2023/05/30 12:35:24;;;;;;;8.18;1.80;;;;;;;;;;4990305;28;20049;-81
2023/05/30 12:37:58;;;;;;;3.00;1.42;;;;;;;;;;4991940;28;20060;-82
2023/05/30 12:40:25;;;;;;;7.68;1.50;;;;;;;;;;5006043;28;20132;-80
2023/05/30 12:42:54;;;;;;;5.97;2.20;;;;;;;;;;4992812;28;20513;-85
2023/05/30 12:45:21;;;;;;;18.55;3.67;;;;;;;;;;5009018;28;20073;-83
2023/05/30 12:47:48;;;;;;;8.15;1.73;;;;;;;;;;5012416;28;20065;-83
2023/05/30 12:50:15;;;;;;;5.32;2.13;;;;;;;;;;5010998;28;20790;-81
2023/05/30 12:52:42;;;;;;;6.57;1.73;;;;;;;;;;5012700;28;20069;-83
2023/05/30 12:55:12;;;;;;;7.15;1.60;;;;;;;;;;5007190;28;20041;-83
2023/05/30 12:57:38;;;;;;;5.75;1.75;;;;;;;;;;5013384;28;20026;-82
2023/05/30 13:00:06;;;;;;;5.18;1.80;;;;;;;;;;5024284;28;20499;-80
2023/05/30 13:02:35;;;;;;;4.45;1.90;;;;;;;;;;4990267;28;20036;-80
2023/05/30 13:05:02;;;;;;;4.47;1.75;;;;;;;;;;4994545;28;20065;-81
2023/05/30 13:07:29;;;;;;;6.22;1.50;;;;;;;;;;5009872;28;20041;-83
2023/05/30 13:09:55;;;;;;;11.98;1.70;;;;;;;;;;5008829;28;20042;-79
2023/05/30 13:12:22;;;;;;;10.18;1.52;;;;;;;;;;5009930;28;20042;-81
2023/05/30 13:14:49;;;;;;;4.75;1.75;;;;;;;;;;5010544;28;20038;-85
2023/05/30 13:17:15;;;;;;;3.97;1.58;;;;;;;;;;5013912;28;20042;-85
2023/05/30 13:19:42;;;;;;;5.85;2.00;;;;;;;;;;5010115;28;20041;-81
2023/05/30 13:22:09;;;;;;;6.07;1.88;;;;;;;;;;5009915;28;20072;-82
2023/05/30 13:24:37;;;;;;;6.20;1.45;;;;;;;;;;5015945;28;20049;-85
2023/05/30 13:27:04;;;;;;;4.28;1.70;;;;;;;;;;5014628;28;20137;-82
2023/05/30 13:29:31;;;;;;;5.93;1.50;;;;;;;;;;5013771;28;20045;-82
2023/05/30 13:32:00;;;;;;;5.97;1.42;;;;;;;;;;5014605;28;20119;-84
2023/05/30 13:34:28;;;;;;;7.32;1.90;;;;;;;;;;5013314;28;20057;-80
2023/05/30 13:36:55;;;;;;;5.78;1.88;;;;;;;;;;4997162;28;20506;-83
2023/05/30 13:39:22;;;;;;;4.75;1.83;;;;;;;;;;5013062;28;20042;-83
2023/05/30 13:41:49;;;;;;;5.45;2.10;;;;;;;;;;4998086;28;20133;-84
2023/05/30 13:44:15;;;;;;;5.65;1.80;;;;;;;;;;5006374;28;20046;-83
2023/05/30 13:46:42;;;;;;;4.30;1.60;;;;;;;;;;5015396;28;20136;-79
2023/05/30 13:49:08;;;;;;;7.00;1.52;;;;;;;;;;5012445;28;20046;-85
2023/05/30 13:51:36;;;;;;;2.75;1.50;;;;;;;;;;5013952;28;20042;-79
2023/05/30 13:54:03;;;;;;;5.10;1.60;;;;;;;;;;4999535;28;20399;-84
2023/05/30 13:56:30;;;;;;;3.30;1.42;;;;;;;;;;5015535;28;20052;-81
2023/05/30 13:58:57;;;;;;;7.75;1.67;;;;;;;;;;5024865;28;20050;-82
2023/05/30 14:01:24;;;;;;;4.90;1.70;;;;;;;;;;5016695;28;20037;-85
2023/05/30 14:03:51;;;;;;;5.20;1.83;;;;;;;;;;5034176;28;20036;-81
2023/05/30 14:06:18;;;;;;;4.28;1.60;;;;;;;;;;5020200;28;20046;-84
2023/05/30 14:08:45;;;;;;;4.05;1.55;;;;;;;;;;4996032;28;20058;-83
2023/05/30 14:11:15;;;;;;;4.88;1.52;;;;;;;;;;4994432;28;20133;-84
2023/05/30 14:13:42;;;;;;;4.28;1.58;;;;;;;;;;4992192;28;20118;-81
2023/05/30 14:16:11;;;;;;;8.65;1.80;;;;;;;;;;4992490;28;20490;-77
2023/05/30 14:18:45;;;;;;;5.20;1.42;;;;;;;;;;4973613;28;20035;-83
2023/05/30 14:21:12;;;;;;;5.45;1.58;;;;;;;;;;4992941;28;20502;-81
2023/05/30 14:23:39;;;;;;;5.32;1.60;;;;;;;;;;4991177;28;21101;-82
2023/05/30 14:26:12;;;;;;;5.68;1.70;;;;;;;;;;4990126;28;20043;-84
2023/05/30 14:28:40;;;;;;;6.68;1.73;;;;;;;;;;4991862;28;20042;-80
2023/05/30 14:31:09;;;;;;;4.03;1.58;;;;;;;;;;5003983;28;20094;-83
2023/05/30 14:33:35;;;;;;;5.35;1.65;;;;;;;;;;4989043;28;20057;-83
2023/05/30 14:36:02;;;;;;;8.07;1.80;;;;;;;;;;4989915;28;20074;-85
2023/05/30 14:38:29;;;;;;;13.65;1.85;;;;;;;;;;4990419;28;20126;-83
2023/05/30 14:40:55;;;;;;;3.97;1.80;;;;;;;;;;4989283;28;20543;-83
2023/05/30 14:43:22;;;;;;;4.60;1.85;;;;;;;;;;4989630;28;20052;-82
2023/05/30 14:45:48;;;;;;;6.82;1.67;;;;;;;;;;4973604;28;20157;-84
2023/05/30 14:48:16;;;;;;;4.03;1.90;;;;;;;;;;4989800;28;20069;-83